EDLVLSZS

Guest
Details From EDLV - NIEDERRHEIN
To LSZS - Samedan
Flight Number -
Tags generated
Created
Modified
Stats Distance 347 nm / 642 km
Max Altitude 35,000 ft / 10,668 m
Waypoints 8
Social Downloads 1
Likes 0
Share

Download

Looking for another format? Having issues loading an existing format? Contact us
Advertisement - Login to hide

Notes

Basic altitude profile: - Ascent Rate: 2500ft/min - Ascent Speed: 250kts - Cruise Altitude: 41000ft - Cruise Speed: 420kts - Descent Rate: 1500ft/min - Descent Speed: 250kts Options: - Use NATs: yes - Use PACOTS: yes - Use low airways: yes - Use high airways: yes

Route

EDLV ROLIS T881 RIDSU UL607 TGO UN851 LOKTA LSZS

ID Type Via Altitude (ft/m) Position (lat/lon) Dist (leg/tot) Name
O EDLV APT - 0 / 0 51.60246 / 6.14213 - / 0 nm NIEDERRHEIN
ROLIS FIX - 33,800 / 10,302 50.43500 / 7.82533 94 / 94 nm
RIDSU FIX T881 (AWY-HI) 35,000 / 10,668 49.74889 / 8.48000 48 / 142 nm
ABUKA FIX UL607 (AWY-HI) 35,000 / 10,668 49.46528 / 8.67917 18 / 161 nm
SUNEG FIX UL607 (AWY-HI) 35,000 / 10,668 49.19861 / 8.86417 17 / 179 nm
TGO VOR UL607 (AWY-HI) 27,700 / 8,443 48.61841 / 9.25921 38 / 217 nm TANGO VORTAC
LOKTA FIX UN851 (AWY-HI) 24,000 / 7,315 48.16667 / 9.18278 27 / 244 nm
O LSZS APT - 0 / 0 46.53421 / 9.88394 102 / 346 nm Samedan

Altitude Profile

Advertisement - Login to hide

Weather


0- 5 10 15 20 25 30 35+ Temperature / °C

Clouds and Precipitation
Forecast for 2020-10-25 12:00 UTC. Updated 4 hours ago

Ground ~20,000 ft ~40,000 ft Winds

EDLV

Details ICAO EDLV (NRN)
Name Weeze-Niederrhein
Region Germany - Civil
Timezone Europe/Berlin (UTC+1.0)
Stats Elevation 105 ft / 32 m (AMSL)
Location 51.602400° 6.142130°
Runways 1
Magnetic Variation 2.000° E

METAR

EDLV 251320Z 21008KT 9999 -DZ BKN016 13/11 Q1002

Decode

TAF

TAF EDLV 251100Z 2512/2612 19007KT 9999 OVC020 TEMPO 2512/2515 RA BKN013 BECMG 2609/2612 21012KT

Decode

Departure Runways

ID Width Length Bearing (true/mag) Surface Threshold Overrun Markings Lighting
09 148 ft / 45 m 7,982 ft / 2,433 m 92.12° / 90.12° ASPHALT 0 ft / 0 m 902 ft / 275 m PREC-APP CENTERLINE EDGE THRESHOLD MALS
27 148 ft / 45 m 7,982 ft / 2,433 m 272.14° / 270.14° ASPHALT 0 ft / 0 m 902 ft / 275 m PREC-APP CENTERLINE EDGE THRESHOLD MALS TDZ

LSZS

Details ICAO LSZS (SMV)
Name Samedan
Region Switzerland
Timezone Europe/Zurich (UTC+1.0)
Stats Elevation 5,600 ft / 1,707 m (AMSL)
Location 46.534200° 9.883970°
Runways 1
Magnetic Variation 2.997° E

METAR

LSZS 251320Z 20008KT 9999 FEW048 10/02 Q1014 RMK P TL170

Decode

TAF

Not found

Destination Runways

ID Width Length Bearing (true/mag) Surface Threshold Overrun Markings Lighting
03 131 ft / 40 m 6,045 ft / 1,842 m 29.15° / 26.15° ASPHALT 0 ft / 0 m 0 ft / 0 m APP EDGE THRESHOLD MALSR
21 131 ft / 40 m 6,045 ft / 1,842 m 209.15° / 206.16° ASPHALT 361 ft / 110 m 0 ft / 0 m APP EDGE THRESHOLD MALSR